sensor_id;sensor_type;location;lat;lon;timestamp;temperature;humidity
8882;DHT22;4477;48.736;9.176;2022-11-25T00:01:08;-1.30;99.90
8882;DHT22;4477;48.736;9.176;2022-11-25T00:03:37;-1.10;99.90
8882;DHT22;4477;48.736;9.176;2022-11-25T00:06:09;-0.90;99.90
8882;DHT22;4477;48.736;9.176;2022-11-25T00:08:36;-0.60;99.90
8882;DHT22;4477;48.736;9.176;2022-11-25T00:11:03;-0.40;99.90
8882;DHT22;4477;48.736;9.176;2022-11-25T00:13:31;-0.20;99.90
8882;DHT22;4477;48.736;9.176;2022-11-25T00:16:00;0.00;99.90
8882;DHT22;4477;48.736;9.176;2022-11-25T00:18:30;0.40;99.90
8882;DHT22;4477;48.736;9.176;2022-11-25T00:20:57;0.70;99.90
8882;DHT22;4477;48.736;9.176;2022-11-25T00:23:24;0.90;99.90
8882;DHT22;4477;48.736;9.176;2022-11-25T00:25:51;1.00;99.90
8882;DHT22;4477;48.736;9.176;2022-11-25T00:28:17;0.90;99.90
8882;DHT22;4477;48.736;9.176;2022-11-25T00:30:44;0.60;99.90
8882;DHT22;4477;48.736;9.176;2022-11-25T00:33:11;0.40;99.90
8882;DHT22;4477;48.736;9.176;2022-11-25T00:35:39;0.20;99.90
8882;DHT22;4477;48.736;9.176;2022-11-25T00:38:06;0.10;99.90
8882;DHT22;4477;48.736;9.176;2022-11-25T00:40:33;-0.10;99.90
8882;DHT22;4477;48.736;9.176;2022-11-25T00:43:00;-0.20;99.90
8882;DHT22;4477;48.736;9.176;2022-11-25T00:45:44;-0.30;99.90
8882;DHT22;4477;48.736;9.176;2022-11-25T00:48:11;-0.30;99.90
8882;DHT22;4477;48.736;9.176;2022-11-25T00:50:41;-0.30;99.90
8882;DHT22;4477;48.736;9.176;2022-11-25T00:53:08;-0.40;99.90
8882;DHT22;4477;48.736;9.176;2022-11-25T00:55:35;-0.40;99.90
8882;DHT22;4477;48.736;9.176;2022-11-25T00:58:16;-0.30;99.90
8882;DHT22;4477;48.736;9.176;2022-11-25T01:00:43;-0.30;99.90
8882;DHT22;4477;48.736;9.176;2022-11-25T01:03:10;-0.40;99.90
8882;DHT22;4477;48.736;9.176;2022-11-25T01:05:37;-0.40;99.90
8882;DHT22;4477;48.736;9.176;2022-11-25T01:08:05;-0.40;99.90
8882;DHT22;4477;48.736;9.176;2022-11-25T01:10:32;-0.20;99.90
8882;DHT22;4477;48.736;9.176;2022-11-25T01:12:59;0.00;99.90
8882;DHT22;4477;48.736;9.176;2022-11-25T01:15:26;0.30;99.90
8882;DHT22;4477;48.736;9.176;2022-11-25T01:17:53;0.60;99.90
8882;DHT22;4477;48.736;9.176;2022-11-25T01:20:20;0.60;99.90
8882;DHT22;4477;48.736;9.176;2022-11-25T01:22:46;0.60;99.90
8882;DHT22;4477;48.736;9.176;2022-11-25T01:25:15;0.70;99.90
8882;DHT22;4477;48.736;9.176;2022-11-25T01:27:42;0.80;99.90
8882;DHT22;4477;48.736;9.176;2022-11-25T01:30:09;0.80;99.90
8882;DHT22;4477;48.736;9.176;2022-11-25T01:32:36;0.80;99.90
8882;DHT22;4477;48.736;9.176;2022-11-25T01:35:04;0.70;99.90
8882;DHT22;4477;48.736;9.176;2022-11-25T01:37:31;0.70;99.90
8882;DHT22;4477;48.736;9.176;2022-11-25T01:39:59;0.70;99.90
8882;DHT22;4477;48.736;9.176;2022-11-25T01:42:29;0.70;99.90
8882;DHT22;4477;48.736;9.176;2022-11-25T01:45:34;0.80;99.90
8882;DHT22;4477;48.736;9.176;2022-11-25T01:48:05;0.80;99.90
8882;DHT22;4477;48.736;9.176;2022-11-25T01:50:36;0.80;99.90
8882;DHT22;4477;48.736;9.176;2022-11-25T01:53:06;0.80;99.90
8882;DHT22;4477;48.736;9.176;2022-11-25T01:55:35;0.80;99.90
8882;DHT22;4477;48.736;9.176;2022-11-25T01:58:06;0.80;99.90
8882;DHT22;4477;48.736;9.176;2022-11-25T02:00:34;0.70;99.90
8882;DHT22;4477;48.736;9.176;2022-11-25T02:03:02;0.70;99.90
8882;DHT22;4477;48.736;9.176;2022-11-25T02:05:35;0.70;99.90
8882;DHT22;4477;48.736;9.176;2022-11-25T02:08:05;0.70;99.90
8882;DHT22;4477;48.736;9.176;2022-11-25T02:10:34;0.80;99.90
8882;DHT22;4477;48.736;9.176;2022-11-25T02:13:01;0.80;99.90
8882;DHT22;4477;48.736;9.176;2022-11-25T02:15:32;0.70;99.90
8882;DHT22;4477;48.736;9.176;2022-11-25T02:17:59;0.70;99.90
8882;DHT22;4477;48.736;9.176;2022-11-25T02:20:26;0.60;99.90
8882;DHT22;4477;48.736;9.176;2022-11-25T02:22:59;0.50;99.90
8882;DHT22;4477;48.736;9.176;2022-11-25T02:25:31;0.30;99.90
8882;DHT22;4477;48.736;9.176;2022-11-25T02:28:02;0.30;99.90
8882;DHT22;4477;48.736;9.176;2022-11-25T02:30:30;0.20;99.90
8882;DHT22;4477;48.736;9.176;2022-11-25T02:32:58;0.00;99.90
8882;DHT22;4477;48.736;9.176;2022-11-25T02:35:31;-0.10;99.90
8882;DHT22;4477;48.736;9.176;2022-11-25T02:38:04;-0.30;99.90
8882;DHT22;4477;48.736;9.176;2022-11-25T02:40:40;-0.40;99.90
8882;DHT22;4477;48.736;9.176;2022-11-25T02:43:07;-0.40;99.90
8882;DHT22;4477;48.736;9.176;2022-11-25T02:45:50;-0.50;99.90
8882;DHT22;4477;48.736;9.176;2022-11-25T02:48:18;-0.40;99.90
8882;DHT22;4477;48.736;9.176;2022-11-25T02:50:46;-0.30;99.90
8882;DHT22;4477;48.736;9.176;2022-11-25T02:53:13;-0.20;99.90
8882;DHT22;4477;48.736;9.176;2022-11-25T02:55:41;-0.10;99.90
8882;DHT22;4477;48.736;9.176;2022-11-25T02:58:08;-0.10;99.90
8882;DHT22;4477;48.736;9.176;2022-11-25T03:00:35;-0.10;99.90
8882;DHT22;4477;48.736;9.176;2022-11-25T03:03:02;-0.20;99.90
8882;DHT22;4477;48.736;9.176;2022-11-25T03:05:30;-0.30;99.90
8882;DHT22;4477;48.736;9.176;2022-11-25T03:07:56;-0.40;99.90
8882;DHT22;4477;48.736;9.176;2022-11-25T03:10:24;-0.50;99.90
8882;DHT22;4477;48.736;9.176;2022-11-25T03:12:52;-0.40;99.90
8882;DHT22;4477;48.736;9.176;2022-11-25T03:15:19;-0.60;99.90
8882;DHT22;4477;48.736;9.176;2022-11-25T03:17:46;-0.70;99.90
8882;DHT22;4477;48.736;9.176;2022-11-25T03:20:14;-0.70;99.90
8882;DHT22;4477;48.736;9.176;2022-11-25T03:22:41;-0.70;99.90
8882;DHT22;4477;48.736;9.176;2022-11-25T03:25:08;-0.60;99.90
8882;DHT22;4477;48.736;9.176;2022-11-25T03:27:37;-0.60;99.90
8882;DHT22;4477;48.736;9.176;2022-11-25T03:30:09;-0.70;99.90
8882;DHT22;4477;48.736;9.176;2022-11-25T03:32:37;-0.70;99.90
8882;DHT22;4477;48.736;9.176;2022-11-25T03:35:04;-0.50;99.90
8882;DHT22;4477;48.736;9.176;2022-11-25T03:37:31;-0.40;99.90
8882;DHT22;4477;48.736;9.176;2022-11-25T03:39:58;-0.50;99.90
8882;DHT22;4477;48.736;9.176;2022-11-25T03:42:25;-0.60;99.90
8882;DHT22;4477;48.736;9.176;2022-11-25T03:44:52;-0.70;99.90
8882;DHT22;4477;48.736;9.176;2022-11-25T03:47:21;-0.60;99.90
8882;DHT22;4477;48.736;9.176;2022-11-25T03:49:48;-0.70;99.90
8882;DHT22;4477;48.736;9.176;2022-11-25T03:52:15;-0.80;99.90
8882;DHT22;4477;48.736;9.176;2022-11-25T03:54:41;-0.80;99.90
8882;DHT22;4477;48.736;9.176;2022-11-25T03:57:09;-0.70;99.90
8882;DHT22;4477;48.736;9.176;2022-11-25T03:59:35;-0.50;99.90
8882;DHT22;4477;48.736;9.176;2022-11-25T04:02:02;-0.40;99.90
8882;DHT22;4477;48.736;9.176;2022-11-25T04:04:30;-0.50;99.90
8882;DHT22;4477;48.736;9.176;2022-11-25T04:06:57;-0.60;99.90
8882;DHT22;4477;48.736;9.176;2022-11-25T04:09:25;-0.70;99.90
8882;DHT22;4477;48.736;9.176;2022-11-25T04:11:52;-0.80;99.90
8882;DHT22;4477;48.736;9.176;2022-11-25T04:14:36;-0.70;99.90
8882;DHT22;4477;48.736;9.176;2022-11-25T04:17:03;-0.60;99.90
8882;DHT22;4477;48.736;9.176;2022-11-25T04:19:32;-0.60;99.90
8882;DHT22;4477;48.736;9.176;2022-11-25T04:21:58;-0.80;99.90
8882;DHT22;4477;48.736;9.176;2022-11-25T04:24:27;-0.90;99.90
8882;DHT22;4477;48.736;9.176;2022-11-25T04:26:54;-1.00;99.90
8882;DHT22;4477;48.736;9.176;2022-11-25T04:29:21;-0.90;99.90
8882;DHT22;4477;48.736;9.176;2022-11-25T04:31:48;-0.80;99.90
8882;DHT22;4477;48.736;9.176;2022-11-25T04:34:15;-0.70;99.90
8882;DHT22;4477;48.736;9.176;2022-11-25T04:36:43;-0.60;99.90
8882;DHT22;4477;48.736;9.176;2022-11-25T04:39:10;-0.50;99.90
8882;DHT22;4477;48.736;9.176;2022-11-25T04:41:37;-0.50;99.90
8882;DHT22;4477;48.736;9.176;2022-11-25T04:44:04;-0.50;99.90
8882;DHT22;4477;48.736;9.176;2022-11-25T04:46:35;-0.30;99.90
8882;DHT22;4477;48.736;9.176;2022-11-25T04:49:03;-0.10;99.90
8882;DHT22;4477;48.736;9.176;2022-11-25T04:51:30;0.00;99.90
8882;DHT22;4477;48.736;9.176;2022-11-25T04:53:58;0.00;99.90
8882;DHT22;4477;48.736;9.176;2022-11-25T04:56:25;0.00;99.90
8882;DHT22;4477;48.736;9.176;2022-11-25T04:58:53;-0.10;99.90
8882;DHT22;4477;48.736;9.176;2022-11-25T05:01:37;-0.10;99.90
8882;DHT22;4477;48.736;9.176;2022-11-25T05:04:04;-0.30;99.90
8882;DHT22;4477;48.736;9.176;2022-11-25T05:06:30;-0.50;99.90
8882;DHT22;4477;48.736;9.176;2022-11-25T05:08:59;-0.70;99.90
8882;DHT22;4477;48.736;9.176;2022-11-25T05:11:25;-0.90;99.90
8882;DHT22;4477;48.736;9.176;2022-11-25T05:13:52;-1.10;99.90
8882;DHT22;4477;48.736;9.176;2022-11-25T05:16:19;-1.30;99.90
8882;DHT22;4477;48.736;9.176;2022-11-25T05:18:46;-1.40;99.90
8882;DHT22;4477;48.736;9.176;2022-11-25T05:21:13;-1.50;99.90
8882;DHT22;4477;48.736;9.176;2022-11-25T05:23:40;-1.40;99.90
8882;DHT22;4477;48.736;9.176;2022-11-25T05:26:08;-1.20;99.90
8882;DHT22;4477;48.736;9.176;2022-11-25T05:28:35;-1.20;99.90
8882;DHT22;4477;48.736;9.176;2022-11-25T05:31:01;-1.10;99.90
8882;DHT22;4477;48.736;9.176;2022-11-25T05:33:28;-1.30;99.90
8882;DHT22;4477;48.736;9.176;2022-11-25T05:35:57;-1.50;99.90
8882;DHT22;4477;48.736;9.176;2022-11-25T05:38:24;-1.50;99.90
8882;DHT22;4477;48.736;9.176;2022-11-25T05:40:52;-1.50;99.90
8882;DHT22;4477;48.736;9.176;2022-11-25T05:43:20;-1.50;99.90
8882;DHT22;4477;48.736;9.176;2022-11-25T05:45:47;-1.50;99.90
8882;DHT22;4477;48.736;9.176;2022-11-25T05:48:14;-1.50;99.90
8882;DHT22;4477;48.736;9.176;2022-11-25T05:50:40;-1.50;99.90
8882;DHT22;4477;48.736;9.176;2022-11-25T05:53:07;-1.50;99.90
8882;DHT22;4477;48.736;9.176;2022-11-25T05:55:34;-1.40;99.90
8882;DHT22;4477;48.736;9.176;2022-11-25T05:58:01;-1.50;99.90
8882;DHT22;4477;48.736;9.176;2022-11-25T06:00:32;-1.60;99.90
8882;DHT22;4477;48.736;9.176;2022-11-25T06:02:58;-1.80;99.90
8882;DHT22;4477;48.736;9.176;2022-11-25T06:05:25;-1.90;99.90
8882;DHT22;4477;48.736;9.176;2022-11-25T06:07:52;-1.90;99.90
8882;DHT22;4477;48.736;9.176;2022-11-25T06:10:19;-1.90;99.90
8882;DHT22;4477;48.736;9.176;2022-11-25T06:12:46;-1.90;99.90
8882;DHT22;4477;48.736;9.176;2022-11-25T06:15:13;-1.70;99.90
8882;DHT22;4477;48.736;9.176;2022-11-25T06:17:41;-1.50;99.90
8882;DHT22;4477;48.736;9.176;2022-11-25T06:20:09;-1.50;99.90
8882;DHT22;4477;48.736;9.176;2022-11-25T06:22:36;-1.40;99.90
8882;DHT22;4477;48.736;9.176;2022-11-25T06:25:04;-1.30;99.90
8882;DHT22;4477;48.736;9.176;2022-11-25T06:27:31;-1.10;99.90
8882;DHT22;4477;48.736;9.176;2022-11-25T06:29:58;-0.70;99.90
8882;DHT22;4477;48.736;9.176;2022-11-25T06:32:25;-0.60;99.90
8882;DHT22;4477;48.736;9.176;2022-11-25T06:34:53;-0.70;99.90
8882;DHT22;4477;48.736;9.176;2022-11-25T06:37:20;-0.90;99.90
8882;DHT22;4477;48.736;9.176;2022-11-25T06:39:47;-1.10;99.90
8882;DHT22;4477;48.736;9.176;2022-11-25T06:42:14;-1.20;99.90
8882;DHT22;4477;48.736;9.176;2022-11-25T06:44:40;-1.10;99.90
8882;DHT22;4477;48.736;9.176;2022-11-25T06:47:07;-1.10;99.90
8882;DHT22;4477;48.736;9.176;2022-11-25T06:49:34;-1.20;99.90
8882;DHT22;4477;48.736;9.176;2022-11-25T06:52:02;-1.20;99.90
8882;DHT22;4477;48.736;9.176;2022-11-25T06:54:29;-1.30;99.90
8882;DHT22;4477;48.736;9.176;2022-11-25T06:56:56;-1.20;99.90
8882;DHT22;4477;48.736;9.176;2022-11-25T06:59:23;-1.20;99.90
8882;DHT22;4477;48.736;9.176;2022-11-25T07:01:49;-1.10;99.90
8882;DHT22;4477;48.736;9.176;2022-11-25T07:04:17;-0.90;99.90
8882;DHT22;4477;48.736;9.176;2022-11-25T07:06:44;-0.60;99.90
8882;DHT22;4477;48.736;9.176;2022-11-25T07:09:12;-0.20;99.90
8882;DHT22;4477;48.736;9.176;2022-11-25T07:11:40;0.20;99.90
8882;DHT22;4477;48.736;9.176;2022-11-25T07:14:11;0.60;99.90
8882;DHT22;4477;48.736;9.176;2022-11-25T07:16:40;1.00;99.90
8882;DHT22;4477;48.736;9.176;2022-11-25T07:19:07;1.10;99.90
8882;DHT22;4477;48.736;9.176;2022-11-25T07:21:34;1.30;99.90
8882;DHT22;4477;48.736;9.176;2022-11-25T07:24:03;1.50;99.90
8882;DHT22;4477;48.736;9.176;2022-11-25T07:26:34;1.70;99.90
8882;DHT22;4477;48.736;9.176;2022-11-25T07:29:04;1.90;99.90
8882;DHT22;4477;48.736;9.176;2022-11-25T07:31:33;2.10;99.90
8882;DHT22;4477;48.736;9.176;2022-11-25T07:34:02;2.20;99.90
8882;DHT22;4477;48.736;9.176;2022-11-25T07:36:30;2.50;99.90
8882;DHT22;4477;48.736;9.176;2022-11-25T07:38:58;2.60;99.90
8882;DHT22;4477;48.736;9.176;2022-11-25T07:41:26;2.60;99.90
8882;DHT22;4477;48.736;9.176;2022-11-25T07:43:57;2.70;99.90
8882;DHT22;4477;48.736;9.176;2022-11-25T07:46:26;2.90;99.90
8882;DHT22;4477;48.736;9.176;2022-11-25T07:48:55;3.00;99.90
8882;DHT22;4477;48.736;9.176;2022-11-25T07:51:24;3.00;99.90
8882;DHT22;4477;48.736;9.176;2022-11-25T07:53:53;3.00;99.90
8882;DHT22;4477;48.736;9.176;2022-11-25T07:56:20;3.00;99.90
8882;DHT22;4477;48.736;9.176;2022-11-25T07:58:47;3.10;99.90
8882;DHT22;4477;48.736;9.176;2022-11-25T08:01:17;3.10;99.90
8882;DHT22;4477;48.736;9.176;2022-11-25T08:03:45;3.10;99.90
8882;DHT22;4477;48.736;9.176;2022-11-25T08:06:14;3.10;99.90
8882;DHT22;4477;48.736;9.176;2022-11-25T08:08:42;3.20;99.90
8882;DHT22;4477;48.736;9.176;2022-11-25T08:11:11;3.20;99.90
8882;DHT22;4477;48.736;9.176;2022-11-25T08:13:38;3.20;99.90
8882;DHT22;4477;48.736;9.176;2022-11-25T08:16:06;3.20;99.90
8882;DHT22;4477;48.736;9.176;2022-11-25T08:18:34;3.30;99.90
8882;DHT22;4477;48.736;9.176;2022-11-25T08:21:03;3.30;99.90
8882;DHT22;4477;48.736;9.176;2022-11-25T08:23:30;3.30;99.90
8882;DHT22;4477;48.736;9.176;2022-11-25T08:25:57;3.40;99.90
8882;DHT22;4477;48.736;9.176;2022-11-25T08:28:28;3.50;99.90
8882;DHT22;4477;48.736;9.176;2022-11-25T08:31:01;3.70;99.90
8882;DHT22;4477;48.736;9.176;2022-11-25T08:33:28;3.90;99.90
8882;DHT22;4477;48.736;9.176;2022-11-25T08:35:57;4.10;99.90
8882;DHT22;4477;48.736;9.176;2022-11-25T08:38:24;4.30;99.90
8882;DHT22;4477;48.736;9.176;2022-11-25T08:40:51;4.40;99.90
8882;DHT22;4477;48.736;9.176;2022-11-25T08:43:18;4.50;99.90
8882;DHT22;4477;48.736;9.176;2022-11-25T08:45:46;4.60;99.90
8882;DHT22;4477;48.736;9.176;2022-11-25T08:48:13;4.70;99.90
8882;DHT22;4477;48.736;9.176;2022-11-25T08:50:41;4.70;99.90
8882;DHT22;4477;48.736;9.176;2022-11-25T08:53:12;4.70;99.90
8882;DHT22;4477;48.736;9.176;2022-11-25T08:55:39;4.70;99.90
8882;DHT22;4477;48.736;9.176;2022-11-25T08:58:06;4.80;99.90
8882;DHT22;4477;48.736;9.176;2022-11-25T09:00:36;4.90;99.90
8882;DHT22;4477;48.736;9.176;2022-11-25T09:03:03;5.00;99.90
8882;DHT22;4477;48.736;9.176;2022-11-25T09:05:30;5.00;99.90
8882;DHT22;4477;48.736;9.176;2022-11-25T15:15:59;5.20;99.90
8882;DHT22;4477;48.736;9.176;2022-11-25T15:18:30;7.30;99.90
8882;DHT22;4477;48.736;9.176;2022-11-25T15:20:59;7.10;99.90
8882;DHT22;4477;48.736;9.176;2022-11-25T15:23:29;7.00;99.90
8882;DHT22;4477;48.736;9.176;2022-11-25T15:26:00;6.80;99.90
8882;DHT22;4477;48.736;9.176;2022-11-25T15:28:33;6.70;99.90
8882;DHT22;4477;48.736;9.176;2022-11-25T15:31:06;6.70;99.90
8882;DHT22;4477;48.736;9.176;2022-11-25T15:33:34;6.60;99.90
8882;DHT22;4477;48.736;9.176;2022-11-25T15:36:01;6.50;99.90
8882;DHT22;4477;48.736;9.176;2022-11-25T15:38:38;6.60;99.90
8882;DHT22;4477;48.736;9.176;2022-11-25T15:41:16;6.60;99.90
8882;DHT22;4477;48.736;9.176;2022-11-25T15:43:46;6.70;99.90
8882;DHT22;4477;48.736;9.176;2022-11-25T15:46:16;6.70;99.90
8882;DHT22;4477;48.736;9.176;2022-11-25T15:48:44;6.60;99.90
8882;DHT22;4477;48.736;9.176;2022-11-25T15:51:21;6.50;99.90
8882;DHT22;4477;48.736;9.176;2022-11-25T15:53:52;6.40;99.90
8882;DHT22;4477;48.736;9.176;2022-11-25T15:56:22;6.40;99.90
8882;DHT22;4477;48.736;9.176;2022-11-25T15:58:49;6.50;99.90
8882;DHT22;4477;48.736;9.176;2022-11-25T16:01:21;6.40;99.90
8882;DHT22;4477;48.736;9.176;2022-11-25T16:03:48;6.30;99.90
8882;DHT22;4477;48.736;9.176;2022-11-25T16:06:21;6.20;99.90
8882;DHT22;4477;48.736;9.176;2022-11-25T16:08:52;6.20;99.90
8882;DHT22;4477;48.736;9.176;2022-11-25T16:11:20;6.10;99.90
8882;DHT22;4477;48.736;9.176;2022-11-25T16:13:48;6.10;99.90
8882;DHT22;4477;48.736;9.176;2022-11-25T16:16:23;6.10;99.90
8882;DHT22;4477;48.736;9.176;2022-11-25T16:19:10;5.90;99.90
8882;DHT22;4477;48.736;9.176;2022-11-25T16:21:42;5.80;99.90
8882;DHT22;4477;48.736;9.176;2022-11-25T16:24:24;5.70;99.90
8882;DHT22;4477;48.736;9.176;2022-11-25T16:26:55;5.60;99.90
8882;DHT22;4477;48.736;9.176;2022-11-25T16:29:26;5.50;99.90
8882;DHT22;4477;48.736;9.176;2022-11-25T16:31:55;5.50;99.90
8882;DHT22;4477;48.736;9.176;2022-11-25T16:34:22;5.50;99.90
8882;DHT22;4477;48.736;9.176;2022-11-25T16:36:50;5.50;99.90
8882;DHT22;4477;48.736;9.176;2022-11-25T16:39:17;5.40;99.90
8882;DHT22;4477;48.736;9.176;2022-11-25T16:41:54;5.30;99.90
8882;DHT22;4477;48.736;9.176;2022-11-25T16:44:23;5.30;99.90
8882;DHT22;4477;48.736;9.176;2022-11-25T16:46:50;5.40;99.90
8882;DHT22;4477;48.736;9.176;2022-11-25T16:49:20;5.60;99.90
8882;DHT22;4477;48.736;9.176;2022-11-25T16:51:47;5.80;99.90
8882;DHT22;4477;48.736;9.176;2022-11-25T16:54:17;6.00;99.90
8882;DHT22;4477;48.736;9.176;2022-11-25T16:56:45;6.20;99.90
8882;DHT22;4477;48.736;9.176;2022-11-25T16:59:14;6.30;99.90
8882;DHT22;4477;48.736;9.176;2022-11-25T17:01:42;6.30;99.90
8882;DHT22;4477;48.736;9.176;2022-11-25T17:04:10;6.40;99.90
8882;DHT22;4477;48.736;9.176;2022-11-25T17:06:39;6.30;99.90
8882;DHT22;4477;48.736;9.176;2022-11-25T17:09:07;6.30;99.90
8882;DHT22;4477;48.736;9.176;2022-11-25T17:11:37;6.10;99.90
8882;DHT22;4477;48.736;9.176;2022-11-25T17:14:11;6.00;99.90
8882;DHT22;4477;48.736;9.176;2022-11-25T17:16:41;5.90;99.90
8882;DHT22;4477;48.736;9.176;2022-11-25T17:19:12;5.60;99.90
8882;DHT22;4477;48.736;9.176;2022-11-25T17:21:40;5.50;99.90
8882;DHT22;4477;48.736;9.176;2022-11-25T17:24:13;5.50;99.90
8882;DHT22;4477;48.736;9.176;2022-11-25T17:26:41;5.50;99.90
8882;DHT22;4477;48.736;9.176;2022-11-25T17:29:13;5.50;99.90
8882;DHT22;4477;48.736;9.176;2022-11-25T17:31:41;5.30;99.90
8882;DHT22;4477;48.736;9.176;2022-11-25T17:34:12;5.10;99.90
8882;DHT22;4477;48.736;9.176;2022-11-25T17:36:41;4.80;99.90
8882;DHT22;4477;48.736;9.176;2022-11-25T17:39:09;4.40;99.90
8882;DHT22;4477;48.736;9.176;2022-11-25T17:41:37;4.30;99.90
8882;DHT22;4477;48.736;9.176;2022-11-25T17:44:15;4.20;99.90
8882;DHT22;4477;48.736;9.176;2022-11-25T17:46:46;4.30;99.90
8882;DHT22;4477;48.736;9.176;2022-11-25T17:49:14;4.40;99.90
8882;DHT22;4477;48.736;9.176;2022-11-25T17:51:43;4.50;99.90
8882;DHT22;4477;48.736;9.176;2022-11-25T17:54:10;4.50;99.90
8882;DHT22;4477;48.736;9.176;2022-11-25T17:56:38;4.60;99.90
8882;DHT22;4477;48.736;9.176;2022-11-25T17:59:10;4.70;99.90
8882;DHT22;4477;48.736;9.176;2022-11-25T18:01:38;4.70;99.90
8882;DHT22;4477;48.736;9.176;2022-11-25T18:04:15;4.70;99.90
8882;DHT22;4477;48.736;9.176;2022-11-25T18:06:43;4.90;99.90
8882;DHT22;4477;48.736;9.176;2022-11-25T18:09:10;5.10;99.90
8882;DHT22;4477;48.736;9.176;2022-11-25T18:11:39;5.20;99.90
8882;DHT22;4477;48.736;9.176;2022-11-25T18:14:09;5.30;99.90
8882;DHT22;4477;48.736;9.176;2022-11-25T18:16:37;5.30;99.90
8882;DHT22;4477;48.736;9.176;2022-11-25T18:19:09;5.30;99.90
8882;DHT22;4477;48.736;9.176;2022-11-25T18:21:37;5.30;99.90
8882;DHT22;4477;48.736;9.176;2022-11-25T18:24:05;5.10;99.90
8882;DHT22;4477;48.736;9.176;2022-11-25T18:26:33;5.10;99.90
8882;DHT22;4477;48.736;9.176;2022-11-25T18:29:07;5.30;99.90
8882;DHT22;4477;48.736;9.176;2022-11-25T18:31:38;5.30;99.90
8882;DHT22;4477;48.736;9.176;2022-11-25T18:34:12;5.50;99.90
8882;DHT22;4477;48.736;9.176;2022-11-25T18:36:39;5.60;99.90
8882;DHT22;4477;48.736;9.176;2022-11-25T18:39:07;5.80;99.90
8882;DHT22;4477;48.736;9.176;2022-11-25T18:41:35;5.80;99.90
8882;DHT22;4477;48.736;9.176;2022-11-25T18:44:03;5.90;99.90
8882;DHT22;4477;48.736;9.176;2022-11-25T18:46:34;5.80;99.90
8882;DHT22;4477;48.736;9.176;2022-11-25T18:49:09;5.90;99.90
8882;DHT22;4477;48.736;9.176;2022-11-25T18:51:36;5.90;99.90
8882;DHT22;4477;48.736;9.176;2022-11-25T18:54:03;5.80;99.90
8882;DHT22;4477;48.736;9.176;2022-11-25T18:56:31;5.70;99.90
8882;DHT22;4477;48.736;9.176;2022-11-25T18:58:59;5.60;99.90
8882;DHT22;4477;48.736;9.176;2022-11-25T19:01:27;5.50;99.90
8882;DHT22;4477;48.736;9.176;2022-11-25T19:03:54;5.50;99.90
8882;DHT22;4477;48.736;9.176;2022-11-25T19:06:22;5.30;99.90
8882;DHT22;4477;48.736;9.176;2022-11-25T19:08:48;5.00;99.90
8882;DHT22;4477;48.736;9.176;2022-11-25T19:11:18;4.80;99.90
8882;DHT22;4477;48.736;9.176;2022-11-25T19:13:50;4.50;99.90
8882;DHT22;4477;48.736;9.176;2022-11-25T19:16:20;4.30;99.90
8882;DHT22;4477;48.736;9.176;2022-11-25T19:18:48;4.20;99.90
8882;DHT22;4477;48.736;9.176;2022-11-25T19:21:16;4.00;99.90
8882;DHT22;4477;48.736;9.176;2022-11-25T19:23:43;4.00;99.90
8882;DHT22;4477;48.736;9.176;2022-11-25T19:26:13;3.90;99.90
8882;DHT22;4477;48.736;9.176;2022-11-25T19:28:42;3.80;99.90
8882;DHT22;4477;48.736;9.176;2022-11-25T19:31:16;3.80;99.90
8882;DHT22;4477;48.736;9.176;2022-11-25T19:33:47;3.70;99.90
8882;DHT22;4477;48.736;9.176;2022-11-25T19:36:20;3.70;99.90
8882;DHT22;4477;48.736;9.176;2022-11-25T19:38:48;3.80;99.90
8882;DHT22;4477;48.736;9.176;2022-11-25T19:41:15;3.80;99.90
8882;DHT22;4477;48.736;9.176;2022-11-25T19:43:41;3.90;99.90
8882;DHT22;4477;48.736;9.176;2022-11-25T19:46:21;3.80;99.90
8882;DHT22;4477;48.736;9.176;2022-11-25T19:48:50;3.80;99.90
8882;DHT22;4477;48.736;9.176;2022-11-25T19:51:18;3.60;99.90
8882;DHT22;4477;48.736;9.176;2022-11-25T19:53:46;3.60;99.90
8882;DHT22;4477;48.736;9.176;2022-11-25T19:56:17;3.60;99.90
8882;DHT22;4477;48.736;9.176;2022-11-25T19:58:47;3.50;99.90
8882;DHT22;4477;48.736;9.176;2022-11-25T20:01:15;3.60;99.90
8882;DHT22;4477;48.736;9.176;2022-11-25T20:03:44;3.50;99.90
8882;DHT22;4477;48.736;9.176;2022-11-25T20:06:14;3.60;99.90
8882;DHT22;4477;48.736;9.176;2022-11-25T20:08:41;3.80;99.90
8882;DHT22;4477;48.736;9.176;2022-11-25T20:11:10;4.00;99.90
8882;DHT22;4477;48.736;9.176;2022-11-25T20:13:37;4.10;99.90
8882;DHT22;4477;48.736;9.176;2022-11-25T20:16:12;4.00;99.90
8882;DHT22;4477;48.736;9.176;2022-11-25T20:18:40;4.00;99.90
8882;DHT22;4477;48.736;9.176;2022-11-25T20:21:16;4.00;99.90
8882;DHT22;4477;48.736;9.176;2022-11-25T20:23:43;4.10;99.90
8882;DHT22;4477;48.736;9.176;2022-11-25T20:26:16;4.20;99.90
8882;DHT22;4477;48.736;9.176;2022-11-25T20:28:43;4.40;99.90
8882;DHT22;4477;48.736;9.176;2022-11-25T20:31:11;4.40;99.90
8882;DHT22;4477;48.736;9.176;2022-11-25T20:33:38;4.50;99.90
8882;DHT22;4477;48.736;9.176;2022-11-25T20:36:09;4.40;99.90
8882;DHT22;4477;48.736;9.176;2022-11-25T20:38:43;4.20;99.90
8882;DHT22;4477;48.736;9.176;2022-11-25T20:41:11;4.00;99.90
8882;DHT22;4477;48.736;9.176;2022-11-25T20:43:40;3.90;99.90
8882;DHT22;4477;48.736;9.176;2022-11-25T20:46:13;3.80;99.90
8882;DHT22;4477;48.736;9.176;2022-11-25T20:48:40;3.80;99.90
8882;DHT22;4477;48.736;9.176;2022-11-25T20:51:13;3.80;99.90
8882;DHT22;4477;48.736;9.176;2022-11-25T20:53:45;3.60;99.90
8882;DHT22;4477;48.736;9.176;2022-11-25T20:56:13;3.40;99.90
8882;DHT22;4477;48.736;9.176;2022-11-25T20:58:42;3.40;99.90
8882;DHT22;4477;48.736;9.176;2022-11-25T21:01:09;3.40;99.90
8882;DHT22;4477;48.736;9.176;2022-11-25T21:03:36;3.40;99.90
8882;DHT22;4477;48.736;9.176;2022-11-25T21:06:11;3.50;99.90
8882;DHT22;4477;48.736;9.176;2022-11-25T21:08:45;3.70;99.90
8882;DHT22;4477;48.736;9.176;2022-11-25T21:11:13;3.60;99.90
8882;DHT22;4477;48.736;9.176;2022-11-25T21:13:41;3.60;99.90
8882;DHT22;4477;48.736;9.176;2022-11-25T21:16:08;3.60;99.90
8882;DHT22;4477;48.736;9.176;2022-11-25T21:18:34;3.70;99.90
8882;DHT22;4477;48.736;9.176;2022-11-25T21:21:01;3.70;99.90
8882;DHT22;4477;48.736;9.176;2022-11-25T21:23:32;3.60;99.90
8882;DHT22;4477;48.736;9.176;2022-11-25T21:26:03;3.60;99.90
8882;DHT22;4477;48.736;9.176;2022-11-25T21:28:31;3.60;99.90
8882;DHT22;4477;48.736;9.176;2022-11-25T21:31:02;3.60;99.90
8882;DHT22;4477;48.736;9.176;2022-11-25T21:33:29;3.50;99.90
8882;DHT22;4477;48.736;9.176;2022-11-25T21:35:56;3.40;99.90
8882;DHT22;4477;48.736;9.176;2022-11-25T21:38:24;3.30;99.90
8882;DHT22;4477;48.736;9.176;2022-11-25T21:40:53;3.40;99.90
8882;DHT22;4477;48.736;9.176;2022-11-25T21:43:23;3.50;99.90
8882;DHT22;4477;48.736;9.176;2022-11-25T21:45:58;3.60;99.90
8882;DHT22;4477;48.736;9.176;2022-11-25T21:48:26;3.70;99.90
8882;DHT22;4477;48.736;9.176;2022-11-25T21:50:54;3.70;99.90
8882;DHT22;4477;48.736;9.176;2022-11-25T21:53:21;3.90;99.90
8882;DHT22;4477;48.736;9.176;2022-11-25T21:55:48;3.90;99.90
8882;DHT22;4477;48.736;9.176;2022-11-25T21:58:18;3.90;99.90
8882;DHT22;4477;48.736;9.176;2022-11-25T22:00:50;3.90;99.90
8882;DHT22;4477;48.736;9.176;2022-11-25T22:03:19;3.80;99.90
8882;DHT22;4477;48.736;9.176;2022-11-25T22:05:47;3.80;99.90
